sensor_id;sensor_type;location;lat;lon;timestamp;P1;durP1;ratioP1;P2;durP2;ratioP2
29200;SDS011;16244;51.956;12.980;2023-06-22T00:02:23;3.87;;;3.57;;
29200;SDS011;16244;51.956;12.980;2023-06-22T00:04:51;3.63;;;3.53;;
29200;SDS011;16244;51.956;12.980;2023-06-22T00:07:20;3.53;;;3.43;;
29200;SDS011;16244;51.956;12.980;2023-06-22T00:09:48;3.43;;;3.33;;
29200;SDS011;16244;51.956;12.980;2023-06-22T00:12:16;2.97;;;2.90;;
29200;SDS011;16244;51.956;12.980;2023-06-22T00:14:44;2.93;;;2.83;;
29200;SDS011;16244;51.956;12.980;2023-06-22T00:17:12;3.27;;;3.10;;
29200;SDS011;16244;51.956;12.980;2023-06-22T00:19:40;3.70;;;3.60;;
29200;SDS011;16244;51.956;12.980;2023-06-22T00:22:09;2.93;;;2.83;;
29200;SDS011;16244;51.956;12.980;2023-06-22T00:24:38;3.13;;;3.03;;
29200;SDS011;16244;51.956;12.980;2023-06-22T00:27:06;3.63;;;3.43;;
29200;SDS011;16244;51.956;12.980;2023-06-22T00:29:34;3.80;;;3.60;;
29200;SDS011;16244;51.956;12.980;2023-06-22T00:32:02;3.97;;;3.87;;
29200;SDS011;16244;51.956;12.980;2023-06-22T00:34:30;4.57;;;4.17;;
29200;SDS011;16244;51.956;12.980;2023-06-22T00:37:03;4.53;;;4.40;;
29200;SDS011;16244;51.956;12.980;2023-06-22T00:39:31;5.20;;;4.83;;
29200;SDS011;16244;51.956;12.980;2023-06-22T00:42:01;3.97;;;3.77;;
29200;SDS011;16244;51.956;12.980;2023-06-22T00:44:28;4.00;;;3.80;;
29200;SDS011;16244;51.956;12.980;2023-06-22T00:46:56;3.90;;;3.70;;
29200;SDS011;16244;51.956;12.980;2023-06-22T00:49:26;3.93;;;3.70;;
29200;SDS011;16244;51.956;12.980;2023-06-22T00:51:54;3.70;;;3.50;;
29200;SDS011;16244;51.956;12.980;2023-06-22T00:54:22;3.83;;;3.70;;
29200;SDS011;16244;51.956;12.980;2023-06-22T00:56:50;4.30;;;4.10;;
29200;SDS011;16244;51.956;12.980;2023-06-22T00:59:22;5.90;;;4.87;;
29200;SDS011;16244;51.956;12.980;2023-06-22T01:01:51;4.67;;;4.47;;
29200;SDS011;16244;51.956;12.980;2023-06-22T01:04:19;5.40;;;4.50;;
29200;SDS011;16244;51.956;12.980;2023-06-22T01:06:50;4.77;;;4.57;;
29200;SDS011;16244;51.956;12.980;2023-06-22T01:09:22;4.07;;;3.87;;
29200;SDS011;16244;51.956;12.980;2023-06-22T01:11:51;4.50;;;4.20;;
29200;SDS011;16244;51.956;12.980;2023-06-22T01:14:23;4.73;;;4.43;;
29200;SDS011;16244;51.956;12.980;2023-06-22T01:16:51;5.63;;;5.20;;
29200;SDS011;16244;51.956;12.980;2023-06-22T01:19:27;5.67;;;5.17;;
29200;SDS011;16244;51.956;12.980;2023-06-22T01:21:56;4.30;;;4.00;;
29200;SDS011;16244;51.956;12.980;2023-06-22T01:24:27;5.60;;;5.10;;
29200;SDS011;16244;51.956;12.980;2023-06-22T01:26:57;4.87;;;4.33;;
29200;SDS011;16244;51.956;12.980;2023-06-22T01:29:29;5.77;;;5.27;;
29200;SDS011;16244;51.956;12.980;2023-06-22T01:31:57;6.90;;;6.40;;
29200;SDS011;16244;51.956;12.980;2023-06-22T01:34:27;6.20;;;5.67;;
29200;SDS011;16244;51.956;12.980;2023-06-22T01:36:56;6.77;;;6.37;;
29200;SDS011;16244;51.956;12.980;2023-06-22T01:39:24;11.40;;;6.50;;
29200;SDS011;16244;51.956;12.980;2023-06-22T01:41:52;7.10;;;5.97;;
29200;SDS011;16244;51.956;12.980;2023-06-22T01:44:21;5.57;;;5.20;;
29200;SDS011;16244;51.956;12.980;2023-06-22T01:46:50;11.33;;;5.93;;
29200;SDS011;16244;51.956;12.980;2023-06-22T01:49:19;5.40;;;5.10;;
29200;SDS011;16244;51.956;12.980;2023-06-22T01:51:47;6.60;;;6.20;;
29200;SDS011;16244;51.956;12.980;2023-06-22T01:54:15;6.67;;;6.23;;
29200;SDS011;16244;51.956;12.980;2023-06-22T01:56:43;6.87;;;6.27;;
29200;SDS011;16244;51.956;12.980;2023-06-22T01:59:11;5.70;;;5.30;;
29200;SDS011;16244;51.956;12.980;2023-06-22T02:01:42;6.30;;;5.90;;
29200;SDS011;16244;51.956;12.980;2023-06-22T02:04:13;5.60;;;5.30;;
29200;SDS011;16244;51.956;12.980;2023-06-22T02:06:46;8.00;;;7.20;;
29200;SDS011;16244;51.956;12.980;2023-06-22T02:09:16;7.87;;;7.30;;
29200;SDS011;16244;51.956;12.980;2023-06-22T02:11:47;7.63;;;6.93;;
29200;SDS011;16244;51.956;12.980;2023-06-22T02:14:22;7.60;;;6.30;;
29200;SDS011;16244;51.956;12.980;2023-06-22T02:16:52;7.63;;;6.00;;
29200;SDS011;16244;51.956;12.980;2023-06-22T02:19:23;7.93;;;7.23;;
29200;SDS011;16244;51.956;12.980;2023-06-22T02:21:51;6.17;;;5.77;;
29200;SDS011;16244;51.956;12.980;2023-06-22T02:24:19;6.47;;;6.07;;
29200;SDS011;16244;51.956;12.980;2023-06-22T02:26:49;7.10;;;6.60;;
29200;SDS011;16244;51.956;12.980;2023-06-22T02:29:17;6.80;;;6.17;;
29200;SDS011;16244;51.956;12.980;2023-06-22T02:31:45;7.70;;;7.00;;
29200;SDS011;16244;51.956;12.980;2023-06-22T02:34:13;7.30;;;6.60;;
29200;SDS011;16244;51.956;12.980;2023-06-22T02:36:45;7.43;;;6.83;;
29200;SDS011;16244;51.956;12.980;2023-06-22T02:39:17;8.67;;;6.13;;
29200;SDS011;16244;51.956;12.980;2023-06-22T02:41:45;7.83;;;7.20;;
29200;SDS011;16244;51.956;12.980;2023-06-22T02:44:13;9.97;;;8.97;;
29200;SDS011;16244;51.956;12.980;2023-06-22T02:46:41;10.40;;;9.40;;
29200;SDS011;16244;51.956;12.980;2023-06-22T02:49:09;7.97;;;7.23;;
29200;SDS011;16244;51.956;12.980;2023-06-22T02:51:38;9.40;;;8.50;;
29200;SDS011;16244;51.956;12.980;2023-06-22T02:54:07;11.80;;;9.73;;
29200;SDS011;16244;51.956;12.980;2023-06-22T02:56:35;12.23;;;10.53;;
29200;SDS011;16244;51.956;12.980;2023-06-22T02:59:03;11.60;;;10.07;;
29200;SDS011;16244;51.956;12.980;2023-06-22T03:01:31;16.10;;;12.93;;
29200;SDS011;16244;51.956;12.980;2023-06-22T03:04:05;11.53;;;9.57;;
29200;SDS011;16244;51.956;12.980;2023-06-22T03:06:34;11.70;;;10.30;;
29200;SDS011;16244;51.956;12.980;2023-06-22T03:09:02;14.70;;;11.43;;
29200;SDS011;16244;51.956;12.980;2023-06-22T03:11:32;12.40;;;11.10;;
29200;SDS011;16244;51.956;12.980;2023-06-22T03:14:00;13.27;;;10.53;;
29200;SDS011;16244;51.956;12.980;2023-06-22T03:16:28;15.23;;;9.63;;
29200;SDS011;16244;51.956;12.980;2023-06-22T03:18:56;13.00;;;11.30;;
29200;SDS011;16244;51.956;12.980;2023-06-22T03:21:28;12.40;;;10.20;;
29200;SDS011;16244;51.956;12.980;2023-06-22T03:23:56;12.20;;;10.53;;
29200;SDS011;16244;51.956;12.980;2023-06-22T03:26:24;12.90;;;10.40;;
29200;SDS011;16244;51.956;12.980;2023-06-22T03:28:54;12.97;;;11.03;;
29200;SDS011;16244;51.956;12.980;2023-06-22T03:31:22;11.20;;;9.93;;
29200;SDS011;16244;51.956;12.980;2023-06-22T03:33:50;13.20;;;10.77;;
29200;SDS011;16244;51.956;12.980;2023-06-22T03:36:18;11.23;;;10.00;;
29200;SDS011;16244;51.956;12.980;2023-06-22T03:38:46;13.40;;;11.20;;
29200;SDS011;16244;51.956;12.980;2023-06-22T03:41:14;15.40;;;12.70;;
29200;SDS011;16244;51.956;12.980;2023-06-22T03:43:42;12.90;;;11.13;;
29200;SDS011;16244;51.956;12.980;2023-06-22T03:46:11;14.00;;;10.90;;
29200;SDS011;16244;51.956;12.980;2023-06-22T03:48:39;13.80;;;11.40;;
29200;SDS011;16244;51.956;12.980;2023-06-22T03:51:07;12.33;;;11.03;;
29200;SDS011;16244;51.956;12.980;2023-06-22T03:53:35;13.07;;;10.40;;
29200;SDS011;16244;51.956;12.980;2023-06-22T03:56:03;14.40;;;10.20;;
29200;SDS011;16244;51.956;12.980;2023-06-22T03:58:31;12.07;;;10.97;;
29200;SDS011;16244;51.956;12.980;2023-06-22T04:01:01;11.60;;;10.50;;
29200;SDS011;16244;51.956;12.980;2023-06-22T04:03:30;12.90;;;11.47;;
29200;SDS011;16244;51.956;12.980;2023-06-22T04:05:58;12.33;;;11.07;;
29200;SDS011;16244;51.956;12.980;2023-06-22T04:08:26;11.37;;;10.37;;
29200;SDS011;16244;51.956;12.980;2023-06-22T04:10:53;11.53;;;9.60;;
29200;SDS011;16244;51.956;12.980;2023-06-22T04:13:21;14.70;;;10.40;;
29200;SDS011;16244;51.956;12.980;2023-06-22T04:15:49;15.20;;;11.60;;
29200;SDS011;16244;51.956;12.980;2023-06-22T04:18:17;14.20;;;10.50;;
29200;SDS011;16244;51.956;12.980;2023-06-22T04:20:46;12.43;;;11.13;;
29200;SDS011;16244;51.956;12.980;2023-06-22T04:23:14;12.43;;;11.10;;
29200;SDS011;16244;51.956;12.980;2023-06-22T04:25:42;17.80;;;14.77;;
29200;SDS011;16244;51.956;12.980;2023-06-22T04:28:10;11.80;;;10.70;;
29200;SDS011;16244;51.956;12.980;2023-06-22T04:30:38;13.63;;;10.23;;
29200;SDS011;16244;51.956;12.980;2023-06-22T04:33:12;11.97;;;10.77;;
29200;SDS011;16244;51.956;12.980;2023-06-22T04:35:40;12.40;;;11.10;;
29200;SDS011;16244;51.956;12.980;2023-06-22T04:38:11;18.47;;;15.03;;
29200;SDS011;16244;51.956;12.980;2023-06-22T04:40:39;13.30;;;12.03;;
29200;SDS011;16244;51.956;12.980;2023-06-22T04:43:07;11.60;;;10.37;;
29200;SDS011;16244;51.956;12.980;2023-06-22T04:45:35;13.60;;;12.20;;
29200;SDS011;16244;51.956;12.980;2023-06-22T04:48:04;15.10;;;11.07;;
29200;SDS011;16244;51.956;12.980;2023-06-22T04:50:34;11.70;;;10.47;;
29200;SDS011;16244;51.956;12.980;2023-06-22T04:53:04;12.83;;;11.53;;
29200;SDS011;16244;51.956;12.980;2023-06-22T04:55:35;12.43;;;11.33;;
29200;SDS011;16244;51.956;12.980;2023-06-22T04:58:07;14.53;;;11.73;;
29200;SDS011;16244;51.956;12.980;2023-06-22T05:00:35;12.43;;;11.23;;
29200;SDS011;16244;51.956;12.980;2023-06-22T05:03:03;13.10;;;11.70;;
29200;SDS011;16244;51.956;12.980;2023-06-22T05:05:32;11.13;;;10.03;;
29200;SDS011;16244;51.956;12.980;2023-06-22T05:08:00;11.77;;;10.67;;
29200;SDS011;16244;51.956;12.980;2023-06-22T05:10:28;14.03;;;11.87;;
29200;SDS011;16244;51.956;12.980;2023-06-22T05:12:57;12.33;;;10.90;;
29200;SDS011;16244;51.956;12.980;2023-06-22T05:15:25;12.00;;;10.90;;
29200;SDS011;16244;51.956;12.980;2023-06-22T05:17:56;11.57;;;10.47;;
29200;SDS011;16244;51.956;12.980;2023-06-22T05:20:24;12.60;;;11.40;;
29200;SDS011;16244;51.956;12.980;2023-06-22T05:22:52;11.67;;;10.50;;
29200;SDS011;16244;51.956;12.980;2023-06-22T05:25:20;13.13;;;11.73;;
29200;SDS011;16244;51.956;12.980;2023-06-22T05:27:47;13.13;;;11.80;;
29200;SDS011;16244;51.956;12.980;2023-06-22T05:30:19;14.47;;;12.90;;
29200;SDS011;16244;51.956;12.980;2023-06-22T05:32:47;13.30;;;11.37;;
29200;SDS011;16244;51.956;12.980;2023-06-22T05:35:14;13.83;;;12.00;;
29200;SDS011;16244;51.956;12.980;2023-06-22T05:37:43;12.10;;;10.90;;
29200;SDS011;16244;51.956;12.980;2023-06-22T05:40:11;14.90;;;13.27;;
29200;SDS011;16244;51.956;12.980;2023-06-22T05:42:40;13.13;;;11.40;;
29200;SDS011;16244;51.956;12.980;2023-06-22T05:45:08;13.93;;;12.47;;
29200;SDS011;16244;51.956;12.980;2023-06-22T05:47:37;13.97;;;12.47;;
29200;SDS011;16244;51.956;12.980;2023-06-22T05:50:06;13.17;;;11.83;;
29200;SDS011;16244;51.956;12.980;2023-06-22T05:52:34;16.17;;;13.73;;
29200;SDS011;16244;51.956;12.980;2023-06-22T05:55:02;13.33;;;12.03;;
29200;SDS011;16244;51.956;12.980;2023-06-22T05:57:31;16.77;;;12.20;;
29200;SDS011;16244;51.956;12.980;2023-06-22T05:59:59;12.13;;;11.03;;
29200;SDS011;16244;51.956;12.980;2023-06-22T06:02:27;13.33;;;12.07;;
29200;SDS011;16244;51.956;12.980;2023-06-22T06:04:56;12.53;;;11.23;;
29200;SDS011;16244;51.956;12.980;2023-06-22T06:07:24;13.97;;;12.50;;
29200;SDS011;16244;51.956;12.980;2023-06-22T06:09:53;12.13;;;10.97;;
29200;SDS011;16244;51.956;12.980;2023-06-22T06:12:21;12.67;;;11.43;;
29200;SDS011;16244;51.956;12.980;2023-06-22T06:14:49;12.53;;;11.30;;
29200;SDS011;16244;51.956;12.980;2023-06-22T06:17:17;11.87;;;10.77;;
29200;SDS011;16244;51.956;12.980;2023-06-22T06:19:45;13.67;;;12.10;;
29200;SDS011;16244;51.956;12.980;2023-06-22T06:22:14;12.97;;;11.83;;
29200;SDS011;16244;51.956;12.980;2023-06-22T06:24:42;12.83;;;11.53;;
29200;SDS011;16244;51.956;12.980;2023-06-22T06:27:10;12.67;;;11.47;;
29200;SDS011;16244;51.956;12.980;2023-06-22T06:29:38;11.63;;;10.53;;
29200;SDS011;16244;51.956;12.980;2023-06-22T06:32:06;12.13;;;11.07;;
29200;SDS011;16244;51.956;12.980;2023-06-22T06:34:34;12.17;;;11.03;;
29200;SDS011;16244;51.956;12.980;2023-06-22T06:37:03;10.07;;;9.30;;
29200;SDS011;16244;51.956;12.980;2023-06-22T06:39:32;9.80;;;9.10;;
29200;SDS011;16244;51.956;12.980;2023-06-22T06:42:01;10.80;;;9.87;;
29200;SDS011;16244;51.956;12.980;2023-06-22T06:44:29;11.20;;;10.20;;
29200;SDS011;16244;51.956;12.980;2023-06-22T06:46:57;11.27;;;10.20;;
29200;SDS011;16244;51.956;12.980;2023-06-22T06:49:25;10.77;;;9.80;;
29200;SDS011;16244;51.956;12.980;2023-06-22T06:51:53;12.53;;;10.10;;
29200;SDS011;16244;51.956;12.980;2023-06-22T06:54:22;11.50;;;10.30;;
29200;SDS011;16244;51.956;12.980;2023-06-22T06:56:51;10.35;;;9.38;;
29200;SDS011;16244;51.956;12.980;2023-06-22T06:59:19;10.68;;;9.68;;
29200;SDS011;16244;51.956;12.980;2023-06-22T07:01:46;11.02;;;10.02;;
29200;SDS011;16244;51.956;12.980;2023-06-22T07:04:14;10.75;;;9.60;;
29200;SDS011;16244;51.956;12.980;2023-06-22T07:06:42;9.52;;;8.80;;
29200;SDS011;16244;51.956;12.980;2023-06-22T07:09:10;10.13;;;9.25;;
29200;SDS011;16244;51.956;12.980;2023-06-22T07:11:38;9.45;;;8.73;;
29200;SDS011;16244;51.956;12.980;2023-06-22T07:14:07;8.45;;;7.75;;
29200;SDS011;16244;51.956;12.980;2023-06-22T07:16:35;10.57;;;9.50;;
29200;SDS011;16244;51.956;12.980;2023-06-22T07:19:03;8.90;;;8.20;;
29200;SDS011;16244;51.956;12.980;2023-06-22T07:21:31;8.15;;;7.63;;
29200;SDS011;16244;51.956;12.980;2023-06-22T07:23:59;7.60;;;7.00;;
29200;SDS011;16244;51.956;12.980;2023-06-22T07:26:26;7.63;;;7.03;;
29200;SDS011;16244;51.956;12.980;2023-06-22T07:28:54;7.85;;;7.35;;
29200;SDS011;16244;51.956;12.980;2023-06-22T07:31:24;7.43;;;6.82;;
29200;SDS011;16244;51.956;12.980;2023-06-22T07:33:52;8.13;;;7.53;;
29200;SDS011;16244;51.956;12.980;2023-06-22T07:36:20;6.93;;;6.53;;
29200;SDS011;16244;51.956;12.980;2023-06-22T07:38:48;7.85;;;7.35;;
29200;SDS011;16244;51.956;12.980;2023-06-22T07:41:16;7.60;;;7.10;;
29200;SDS011;16244;51.956;12.980;2023-06-22T07:43:45;8.48;;;7.85;;
29200;SDS011;16244;51.956;12.980;2023-06-22T07:46:13;7.60;;;7.00;;
29200;SDS011;16244;51.956;12.980;2023-06-22T07:48:42;8.35;;;7.75;;
29200;SDS011;16244;51.956;12.980;2023-06-22T07:51:10;6.53;;;6.22;;
29200;SDS011;16244;51.956;12.980;2023-06-22T07:53:40;6.30;;;6.00;;
29200;SDS011;16244;51.956;12.980;2023-06-22T07:56:09;6.25;;;5.82;;
29200;SDS011;16244;51.956;12.980;2023-06-22T07:58:37;5.80;;;5.55;;
29200;SDS011;16244;51.956;12.980;2023-06-22T08:01:05;5.22;;;4.85;;
29200;SDS011;16244;51.956;12.980;2023-06-22T08:03:33;6.00;;;5.60;;
29200;SDS011;16244;51.956;12.980;2023-06-22T08:06:02;5.72;;;5.50;;
29200;SDS011;16244;51.956;12.980;2023-06-22T08:08:31;6.63;;;6.15;;
29200;SDS011;16244;51.956;12.980;2023-06-22T08:10:59;5.53;;;5.32;;
29200;SDS011;16244;51.956;12.980;2023-06-22T08:13:27;5.63;;;5.22;;
29200;SDS011;16244;51.956;12.980;2023-06-22T08:15:55;5.13;;;4.93;;
29200;SDS011;16244;51.956;12.980;2023-06-22T08:18:23;5.47;;;4.72;;
29200;SDS011;16244;51.956;12.980;2023-06-22T08:20:51;5.53;;;5.25;;
29200;SDS011;16244;51.956;12.980;2023-06-22T08:23:20;6.30;;;5.78;;
29200;SDS011;16244;51.956;12.980;2023-06-22T08:25:48;6.05;;;5.72;;
29200;SDS011;16244;51.956;12.980;2023-06-22T08:28:17;5.63;;;5.22;;
29200;SDS011;16244;51.956;12.980;2023-06-22T08:30:44;6.50;;;6.20;;
29200;SDS011;16244;51.956;12.980;2023-06-22T08:33:12;5.28;;;5.07;;
29200;SDS011;16244;51.956;12.980;2023-06-22T08:35:41;6.28;;;5.88;;
29200;SDS011;16244;51.956;12.980;2023-06-22T08:38:09;5.78;;;5.47;;
29200;SDS011;16244;51.956;12.980;2023-06-22T08:40:42;5.57;;;5.28;;
29200;SDS011;16244;51.956;12.980;2023-06-22T08:43:10;5.55;;;5.03;;
29200;SDS011;16244;51.956;12.980;2023-06-22T08:45:38;6.30;;;6.05;;
29200;SDS011;16244;51.956;12.980;2023-06-22T08:48:06;5.50;;;5.20;;
29200;SDS011;16244;51.956;12.980;2023-06-22T08:50:37;4.90;;;4.70;;
29200;SDS011;16244;51.956;12.980;2023-06-22T08:53:06;5.35;;;4.95;;
29200;SDS011;16244;51.956;12.980;2023-06-22T08:55:34;6.43;;;5.97;;
29200;SDS011;16244;51.956;12.980;2023-06-22T08:58:03;5.78;;;5.43;;
29200;SDS011;16244;51.956;12.980;2023-06-22T09:00:31;5.10;;;4.72;;
29200;SDS011;16244;51.956;12.980;2023-06-22T09:03:00;6.22;;;5.82;;
29200;SDS011;16244;51.956;12.980;2023-06-22T09:05:29;6.07;;;5.60;;
29200;SDS011;16244;51.956;12.980;2023-06-22T09:07:57;6.10;;;5.78;;
29200;SDS011;16244;51.956;12.980;2023-06-22T09:10:25;5.47;;;5.28;;
29200;SDS011;16244;51.956;12.980;2023-06-22T09:12:53;6.20;;;5.80;;
29200;SDS011;16244;51.956;12.980;2023-06-22T09:15:23;5.93;;;5.63;;
29200;SDS011;16244;51.956;12.980;2023-06-22T09:17:51;6.93;;;6.53;;
29200;SDS011;16244;51.956;12.980;2023-06-22T09:20:20;6.20;;;5.90;;
29200;SDS011;16244;51.956;12.980;2023-06-22T09:22:48;6.82;;;6.43;;
29200;SDS011;16244;51.956;12.980;2023-06-22T09:25:16;5.97;;;5.45;;
29200;SDS011;16244;51.956;12.980;2023-06-22T09:27:46;7.13;;;6.53;;
29200;SDS011;16244;51.956;12.980;2023-06-22T09:30:14;7.43;;;6.90;;
29200;SDS011;16244;51.956;12.980;2023-06-22T09:32:44;6.43;;;6.03;;
29200;SDS011;16244;51.956;12.980;2023-06-22T09:35:12;6.97;;;6.63;;
29200;SDS011;16244;51.956;12.980;2023-06-22T09:37:40;6.47;;;6.07;;
29200;SDS011;16244;51.956;12.980;2023-06-22T09:40:08;5.45;;;5.22;;
29200;SDS011;16244;51.956;12.980;2023-06-22T09:42:38;6.72;;;6.32;;
29200;SDS011;16244;51.956;12.980;2023-06-22T09:45:07;7.72;;;7.13;;
29200;SDS011;16244;51.956;12.980;2023-06-22T09:47:36;6.38;;;6.07;;
29200;SDS011;16244;51.956;12.980;2023-06-22T09:50:06;6.80;;;6.50;;
29200;SDS011;16244;51.956;12.980;2023-06-22T09:52:34;6.07;;;5.78;;
29200;SDS011;16244;51.956;12.980;2023-06-22T09:55:02;5.30;;;5.07;;
29200;SDS011;16244;51.956;12.980;2023-06-22T09:57:30;6.53;;;6.13;;
29200;SDS011;16244;51.956;12.980;2023-06-22T09:59:59;5.43;;;5.13;;
29200;SDS011;16244;51.956;12.980;2023-06-22T10:02:31;5.75;;;5.50;;
29200;SDS011;16244;51.956;12.980;2023-06-22T10:04:59;6.65;;;6.25;;
29200;SDS011;16244;51.956;12.980;2023-06-22T10:07:28;5.53;;;5.30;;
29200;SDS011;16244;51.956;12.980;2023-06-22T10:09:56;5.90;;;5.70;;
29200;SDS011;16244;51.956;12.980;2023-06-22T10:12:25;6.07;;;5.80;;
29200;SDS011;16244;51.956;12.980;2023-06-22T10:14:53;5.57;;;5.47;;
29200;SDS011;16244;51.956;12.980;2023-06-22T10:17:21;4.97;;;4.78;;
29200;SDS011;16244;51.956;12.980;2023-06-22T10:19:49;5.40;;;5.20;;
29200;SDS011;16244;51.956;12.980;2023-06-22T10:22:17;5.40;;;5.20;;
29200;SDS011;16244;51.956;12.980;2023-06-22T10:24:47;5.68;;;5.43;;
29200;SDS011;16244;51.956;12.980;2023-06-22T10:27:15;5.88;;;5.47;;
29200;SDS011;16244;51.956;12.980;2023-06-22T10:29:44;5.05;;;4.78;;
29200;SDS011;16244;51.956;12.980;2023-06-22T10:32:12;4.85;;;4.65;;
29200;SDS011;16244;51.956;12.980;2023-06-22T10:34:40;4.35;;;4.25;;
29200;SDS011;16244;51.956;12.980;2023-06-22T10:37:08;5.20;;;5.00;;
29200;SDS011;16244;51.956;12.980;2023-06-22T10:39:36;5.10;;;4.90;;
29200;SDS011;16244;51.956;12.980;2023-06-22T10:42:06;4.18;;;3.88;;
29200;SDS011;16244;51.956;12.980;2023-06-22T10:44:34;4.80;;;4.50;;
29200;SDS011;16244;51.956;12.980;2023-06-22T10:47:01;4.82;;;4.60;;
29200;SDS011;16244;51.956;12.980;2023-06-22T10:49:29;4.45;;;4.25;;
29200;SDS011;16244;51.956;12.980;2023-06-22T10:51:57;4.40;;;4.20;;
29200;SDS011;16244;51.956;12.980;2023-06-22T10:54:25;4.90;;;4.70;;
29200;SDS011;16244;51.956;12.980;2023-06-22T10:56:53;5.15;;;4.97;;
29200;SDS011;16244;51.956;12.980;2023-06-22T10:59:22;4.32;;;4.22;;
29200;SDS011;16244;51.956;12.980;2023-06-22T11:01:51;4.40;;;4.30;;
29200;SDS011;16244;51.956;12.980;2023-06-22T11:04:19;3.95;;;3.85;;
29200;SDS011;16244;51.956;12.980;2023-06-22T11:06:47;5.22;;;5.03;;
29200;SDS011;16244;51.956;12.980;2023-06-22T11:09:15;3.67;;;3.58;;
29200;SDS011;16244;51.956;12.980;2023-06-22T11:11:46;4.05;;;3.95;;
29200;SDS011;16244;51.956;12.980;2023-06-22T11:14:14;4.10;;;4.00;;
29200;SDS011;16244;51.956;12.980;2023-06-22T11:16:43;3.78;;;3.58;;
29200;SDS011;16244;51.956;12.980;2023-06-22T11:19:12;4.22;;;4.05;;
29200;SDS011;16244;51.956;12.980;2023-06-22T11:21:40;3.88;;;3.78;;
29200;SDS011;16244;51.956;12.980;2023-06-22T11:24:09;4.30;;;4.20;;
29200;SDS011;16244;51.956;12.980;2023-06-22T11:26:36;4.03;;;3.72;;
29200;SDS011;16244;51.956;12.980;2023-06-22T11:29:05;3.67;;;3.58;;
29200;SDS011;16244;51.956;12.980;2023-06-22T11:31:34;3.92;;;3.80;;
29200;SDS011;16244;51.956;12.980;2023-06-22T11:34:05;3.92;;;3.83;;
29200;SDS011;16244;51.956;12.980;2023-06-22T11:36:33;5.15;;;4.95;;
29200;SDS011;16244;51.956;12.980;2023-06-22T11:39:01;4.05;;;3.95;;
29200;SDS011;16244;51.956;12.980;2023-06-22T11:41:29;4.30;;;4.10;;
29200;SDS011;16244;51.956;12.980;2023-06-22T11:43:56;3.78;;;3.67;;
29200;SDS011;16244;51.956;12.980;2023-06-22T11:46:25;3.97;;;3.88;;
29200;SDS011;16244;51.956;12.980;2023-06-22T11:48:54;3.65;;;3.55;;
29200;SDS011;16244;51.956;12.980;2023-06-22T11:51:24;3.22;;;3.22;;
29200;SDS011;16244;51.956;12.980;2023-06-22T11:53:52;3.50;;;3.40;;
29200;SDS011;16244;51.956;12.980;2023-06-22T11:56:20;3.83;;;3.63;;
29200;SDS011;16244;51.956;12.980;2023-06-22T11:58:47;4.22;;;4.05;;
29200;SDS011;16244;51.956;12.980;2023-06-22T12:01:16;4.63;;;3.90;;
29200;SDS011;16244;51.956;12.980;2023-06-22T12:03:43;3.90;;;3.80;;
29200;SDS011;16244;51.956;12.980;2023-06-22T12:06:12;3.65;;;3.55;;
29200;SDS011;16244;51.956;12.980;2023-06-22T12:08:41;4.50;;;4.40;;
29200;SDS011;16244;51.956;12.980;2023-06-22T12:11:09;4.97;;;4.68;;
29200;SDS011;16244;51.956;12.980;2023-06-22T12:13:37;3.78;;;3.47;;
29200;SDS011;16244;51.956;12.980;2023-06-22T12:16:05;3.60;;;3.50;;
29200;SDS011;16244;51.956;12.980;2023-06-22T12:18:33;3.80;;;3.70;;
29200;SDS011;16244;51.956;12.980;2023-06-22T12:21:01;3.60;;;3.50;;
29200;SDS011;16244;51.956;12.980;2023-06-22T12:23:29;3.92;;;3.83;;
29200;SDS011;16244;51.956;12.980;2023-06-22T12:25:58;4.10;;;3.90;;
29200;SDS011;16244;51.956;12.980;2023-06-22T12:28:27;4.25;;;4.13;;
29200;SDS011;16244;51.956;12.980;2023-06-22T12:30:55;3.65;;;3.55;;
29200;SDS011;16244;51.956;12.980;2023-06-22T12:33:23;3.53;;;3.40;;
29200;SDS011;16244;51.956;12.980;2023-06-22T12:35:50;4.07;;;3.80;;
29200;SDS011;16244;51.956;12.980;2023-06-22T12:38:19;3.95;;;3.85;;
29200;SDS011;16244;51.956;12.980;2023-06-22T12:40:47;3.40;;;3.30;;
29200;SDS011;16244;51.956;12.980;2023-06-22T12:43:16;3.55;;;3.45;;
29200;SDS011;16244;51.956;12.980;2023-06-22T12:45:45;3.67;;;3.58;;
29200;SDS011;16244;51.956;12.980;2023-06-22T12:48:12;4.20;;;4.10;;
29200;SDS011;16244;51.956;12.980;2023-06-22T12:50:40;3.70;;;3.60;;
29200;SDS011;16244;51.956;12.980;2023-06-22T12:53:08;4.07;;;3.97;;
29200;SDS011;16244;51.956;12.980;2023-06-22T12:55:36;4.28;;;4.10;;
29200;SDS011;16244;51.956;12.980;2023-06-22T12:58:04;3.47;;;3.38;;
29200;SDS011;16244;51.956;12.980;2023-06-22T13:00:33;4.22;;;4.00;;
29200;SDS011;16244;51.956;12.980;2023-06-22T13:03:01;3.83;;;3.72;;
29200;SDS011;16244;51.956;12.980;2023-06-22T13:05:29;3.40;;;3.30;;
29200;SDS011;16244;51.956;12.980;2023-06-22T13:08:00;3.25;;;3.15;;
29200;SDS011;16244;51.956;12.980;2023-06-22T13:10:28;3.85;;;3.75;;
29200;SDS011;16244;51.956;12.980;2023-06-22T13:12:56;5.38;;;3.50;;
29200;SDS011;16244;51.956;12.980;2023-06-22T13:15:26;3.10;;;3.00;;
29200;SDS011;16244;51.956;12.980;2023-06-22T13:17:56;3.88;;;3.78;;
29200;SDS011;16244;51.956;12.980;2023-06-22T13:20:24;3.63;;;3.53;;
29200;SDS011;16244;51.956;12.980;2023-06-22T13:22:53;3.72;;;3.63;;
29200;SDS011;16244;51.956;12.980;2023-06-22T13:25:22;4.05;;;3.22;;
29200;SDS011;16244;51.956;12.980;2023-06-22T13:27:52;4.50;;;4.38;;
29200;SDS011;16244;51.956;12.980;2023-06-22T13:30:20;3.80;;;3.70;;
29200;SDS011;16244;51.956;12.980;2023-06-22T13:32:49;4.07;;;3.97;;
29200;SDS011;16244;51.956;12.980;2023-06-22T13:35:18;4.22;;;4.13;;
29200;SDS011;16244;51.956;12.980;2023-06-22T13:37:47;4.32;;;4.22;;
29200;SDS011;16244;51.956;12.980;2023-06-22T13:40:15;3.40;;;3.30;;
29200;SDS011;16244;51.956;12.980;2023-06-22T13:42:42;3.92;;;3.83;;
29200;SDS011;16244;51.956;12.980;2023-06-22T13:45:10;4.25;;;4.15;;
29200;SDS011;16244;51.956;12.980;2023-06-22T13:47:38;4.00;;;3.80;;
29200;SDS011;16244;51.956;12.980;2023-06-22T13:50:07;3.22;;;3.13;;
29200;SDS011;16244;51.956;12.980;2023-06-22T13:52:37;3.50;;;3.40;;
29200;SDS011;16244;51.956;12.980;2023-06-22T13:55:05;3.00;;;3.00;;
29200;SDS011;16244;51.956;12.980;2023-06-22T13:57:33;4.10;;;4.00;;
29200;SDS011;16244;51.956;12.980;2023-06-22T14:00:02;3.40;;;3.40;;
29200;SDS011;16244;51.956;12.980;2023-06-22T14:02:32;5.22;;;4.97;;
29200;SDS011;16244;51.956;12.980;2023-06-22T14:05:00;4.80;;;4.70;;
29200;SDS011;16244;51.956;12.980;2023-06-22T14:07:28;4.10;;;3.83;;
29200;SDS011;16244;51.956;12.980;2023-06-22T14:09:59;3.90;;;3.80;;
29200;SDS011;16244;51.956;12.980;2023-06-22T14:12:27;4.43;;;4.30;;
29200;SDS011;16244;51.956;12.980;2023-06-22T14:14:55;3.88;;;3.78;;
29200;SDS011;16244;51.956;12.980;2023-06-22T14:17:23;3.22;;;3.13;;
29200;SDS011;16244;51.956;12.980;2023-06-22T14:19:52;3.80;;;3.70;;
29200;SDS011;16244;51.956;12.980;2023-06-22T14:22:21;3.75;;;3.65;;
29200;SDS011;16244;51.956;12.980;2023-06-22T14:24:49;5.72;;;4.07;;
29200;SDS011;16244;51.956;12.980;2023-06-22T14:27:19;4.32;;;4.22;;
29200;SDS011;16244;51.956;12.980;2023-06-22T14:29:47;3.10;;;3.10;;
29200;SDS011;16244;51.956;12.980;2023-06-22T14:32:15;3.15;;;3.15;;
29200;SDS011;16244;51.956;12.980;2023-06-22T14:34:43;3.15;;;3.05;;
29200;SDS011;16244;51.956;12.980;2023-06-22T14:37:11;4.03;;;3.92;;